sensor_id;sensor_type;location;lat;lon;timestamp;temperature;humidity
6865;DHT22;3471;49.678;8.388;2023-02-23T00:01:30;11.40;99.90
6865;DHT22;3471;49.678;8.388;2023-02-23T00:03:59;11.40;99.90
6865;DHT22;3471;49.678;8.388;2023-02-23T00:06:26;11.40;99.90
6865;DHT22;3471;49.678;8.388;2023-02-23T00:08:52;11.40;99.90
6865;DHT22;3471;49.678;8.388;2023-02-23T00:11:19;11.40;99.90
6865;DHT22;3471;49.678;8.388;2023-02-23T00:13:47;11.40;99.90
6865;DHT22;3471;49.678;8.388;2023-02-23T00:16:16;11.40;99.90
6865;DHT22;3471;49.678;8.388;2023-02-23T00:18:43;11.40;99.90
6865;DHT22;3471;49.678;8.388;2023-02-23T00:26:29;11.30;99.90
6865;DHT22;3471;49.678;8.388;2023-02-23T00:28:58;11.30;99.90
6865;DHT22;3471;49.678;8.388;2023-02-23T00:31:25;11.30;99.90
6865;DHT22;3471;49.678;8.388;2023-02-23T00:33:58;11.30;99.90
6865;DHT22;3471;49.678;8.388;2023-02-23T00:36:27;11.30;99.90
6865;DHT22;3471;49.678;8.388;2023-02-23T00:38:54;11.30;99.90
6865;DHT22;3471;49.678;8.388;2023-02-23T00:41:20;11.20;99.90
6865;DHT22;3471;49.678;8.388;2023-02-23T00:43:48;11.20;99.90
6865;DHT22;3471;49.678;8.388;2023-02-23T00:46:15;11.20;99.90
6865;DHT22;3471;49.678;8.388;2023-02-23T00:48:42;11.20;99.90
6865;DHT22;3471;49.678;8.388;2023-02-23T00:51:08;11.10;99.90
6865;DHT22;3471;49.678;8.388;2023-02-23T00:53:34;11.10;99.90
6865;DHT22;3471;49.678;8.388;2023-02-23T00:56:03;11.00;99.90
6865;DHT22;3471;49.678;8.388;2023-02-23T00:58:29;11.00;99.90
6865;DHT22;3471;49.678;8.388;2023-02-23T01:00:56;11.10;99.90
6865;DHT22;3471;49.678;8.388;2023-02-23T01:03:24;11.10;99.90
6865;DHT22;3471;49.678;8.388;2023-02-23T01:05:49;11.00;99.90
6865;DHT22;3471;49.678;8.388;2023-02-23T01:08:16;11.00;99.90
6865;DHT22;3471;49.678;8.388;2023-02-23T01:10:43;11.00;99.90
6865;DHT22;3471;49.678;8.388;2023-02-23T01:13:11;11.00;99.90
6865;DHT22;3471;49.678;8.388;2023-02-23T01:15:41;11.10;99.90
6865;DHT22;3471;49.678;8.388;2023-02-23T01:18:08;11.10;99.90
6865;DHT22;3471;49.678;8.388;2023-02-23T01:20:35;11.10;99.90
6865;DHT22;3471;49.678;8.388;2023-02-23T01:23:01;11.10;99.90
6865;DHT22;3471;49.678;8.388;2023-02-23T01:25:28;11.10;99.90
6865;DHT22;3471;49.678;8.388;2023-02-23T01:27:54;11.00;99.90
6865;DHT22;3471;49.678;8.388;2023-02-23T01:30:20;11.00;99.90
6865;DHT22;3471;49.678;8.388;2023-02-23T01:32:46;11.10;99.90
6865;DHT22;3471;49.678;8.388;2023-02-23T01:35:13;11.10;99.90
6865;DHT22;3471;49.678;8.388;2023-02-23T01:37:41;11.00;99.90
6865;DHT22;3471;49.678;8.388;2023-02-23T01:40:18;11.00;99.90
6865;DHT22;3471;49.678;8.388;2023-02-23T01:43:26;11.00;99.90
6865;DHT22;3471;49.678;8.388;2023-02-23T01:45:54;11.00;99.90
6865;DHT22;3471;49.678;8.388;2023-02-23T01:48:23;11.00;99.90
6865;DHT22;3471;49.678;8.388;2023-02-23T01:50:58;11.00;99.90
6865;DHT22;3471;49.678;8.388;2023-02-23T01:53:26;11.00;99.90
6865;DHT22;3471;49.678;8.388;2023-02-23T01:55:56;11.00;99.90
6865;DHT22;3471;49.678;8.388;2023-02-23T01:58:24;11.00;99.90
6865;DHT22;3471;49.678;8.388;2023-02-23T02:00:54;11.00;99.90
6865;DHT22;3471;49.678;8.388;2023-02-23T02:03:27;11.00;99.90
6865;DHT22;3471;49.678;8.388;2023-02-23T02:05:53;11.00;99.90
6865;DHT22;3471;49.678;8.388;2023-02-23T02:08:21;11.00;99.90
6865;DHT22;3471;49.678;8.388;2023-02-23T02:10:50;10.90;99.90
6865;DHT22;3471;49.678;8.388;2023-02-23T02:13:22;10.90;99.90
6865;DHT22;3471;49.678;8.388;2023-02-23T02:16:01;10.90;99.90
6865;DHT22;3471;49.678;8.388;2023-02-23T02:29:32;10.90;99.90
6865;DHT22;3471;49.678;8.388;2023-02-23T02:40:44;10.90;99.90
6865;DHT22;3471;49.678;8.388;2023-02-23T02:46:17;10.90;99.90
6865;DHT22;3471;49.678;8.388;2023-02-23T02:49:05;10.90;99.90
6865;DHT22;3471;49.678;8.388;2023-02-23T02:56:48;11.00;99.90
6865;DHT22;3471;49.678;8.388;2023-02-23T02:59:19;11.00;99.90
6865;DHT22;3471;49.678;8.388;2023-02-23T03:02:04;11.00;99.90
6865;DHT22;3471;49.678;8.388;2023-02-23T03:04:48;11.10;99.90
6865;DHT22;3471;49.678;8.388;2023-02-23T03:07:41;11.10;99.90
6865;DHT22;3471;49.678;8.388;2023-02-23T03:16:12;11.10;99.90
6865;DHT22;3471;49.678;8.388;2023-02-23T03:22:31;11.10;99.90
6865;DHT22;3471;49.678;8.388;2023-02-23T03:25:33;11.10;99.90
6865;DHT22;3471;49.678;8.388;2023-02-23T03:28:29;11.10;99.90
6865;DHT22;3471;49.678;8.388;2023-02-23T03:31:36;11.10;99.90
6865;DHT22;3471;49.678;8.388;2023-02-23T03:34:35;11.10;99.90
6865;DHT22;3471;49.678;8.388;2023-02-23T03:40:11;11.00;99.90
6865;DHT22;3471;49.678;8.388;2023-02-23T03:42:58;11.10;99.90
6865;DHT22;3471;49.678;8.388;2023-02-23T03:45:46;11.10;99.90
6865;DHT22;3471;49.678;8.388;2023-02-23T03:48:34;11.10;99.90
6865;DHT22;3471;49.678;8.388;2023-02-23T03:51:21;11.00;99.90
6865;DHT22;3471;49.678;8.388;2023-02-23T03:54:13;11.00;99.90
6865;DHT22;3471;49.678;8.388;2023-02-23T03:57:00;11.00;99.90
6865;DHT22;3471;49.678;8.388;2023-02-23T03:59:49;11.00;99.90
6865;DHT22;3471;49.678;8.388;2023-02-23T04:02:38;10.90;99.90
6865;DHT22;3471;49.678;8.388;2023-02-23T04:05:24;10.90;99.90
6865;DHT22;3471;49.678;8.388;2023-02-23T04:08:13;10.90;99.90
6865;DHT22;3471;49.678;8.388;2023-02-23T04:11:06;10.90;99.90
6865;DHT22;3471;49.678;8.388;2023-02-23T04:13:58;11.00;99.90
6865;DHT22;3471;49.678;8.388;2023-02-23T04:16:24;11.00;99.90
6865;DHT22;3471;49.678;8.388;2023-02-23T04:18:52;11.00;99.90
6865;DHT22;3471;49.678;8.388;2023-02-23T04:21:19;11.00;99.90
6865;DHT22;3471;49.678;8.388;2023-02-23T04:23:44;11.00;99.90
6865;DHT22;3471;49.678;8.388;2023-02-23T04:26:10;11.00;99.90
6865;DHT22;3471;49.678;8.388;2023-02-23T04:28:35;10.90;99.90
6865;DHT22;3471;49.678;8.388;2023-02-23T04:31:01;10.90;99.90
6865;DHT22;3471;49.678;8.388;2023-02-23T04:33:26;10.90;99.90
6865;DHT22;3471;49.678;8.388;2023-02-23T04:35:53;10.90;99.90
6865;DHT22;3471;49.678;8.388;2023-02-23T04:38:19;10.90;99.90
6865;DHT22;3471;49.678;8.388;2023-02-23T04:40:45;10.90;99.90
6865;DHT22;3471;49.678;8.388;2023-02-23T04:43:14;10.90;99.90
6865;DHT22;3471;49.678;8.388;2023-02-23T04:45:40;10.90;99.90
6865;DHT22;3471;49.678;8.388;2023-02-23T04:48:05;10.90;99.90
6865;DHT22;3471;49.678;8.388;2023-02-23T04:50:31;10.90;99.90
6865;DHT22;3471;49.678;8.388;2023-02-23T04:52:57;10.90;99.90
6865;DHT22;3471;49.678;8.388;2023-02-23T04:55:24;10.90;99.90
6865;DHT22;3471;49.678;8.388;2023-02-23T04:57:50;10.90;99.90
6865;DHT22;3471;49.678;8.388;2023-02-23T05:00:17;10.90;99.90
6865;DHT22;3471;49.678;8.388;2023-02-23T05:02:43;10.80;99.90
6865;DHT22;3471;49.678;8.388;2023-02-23T05:05:10;10.80;99.90
6865;DHT22;3471;49.678;8.388;2023-02-23T05:07:36;10.80;99.90
6865;DHT22;3471;49.678;8.388;2023-02-23T05:10:04;10.80;99.90
6865;DHT22;3471;49.678;8.388;2023-02-23T05:12:30;10.80;99.90
6865;DHT22;3471;49.678;8.388;2023-02-23T05:14:56;10.80;99.90
6865;DHT22;3471;49.678;8.388;2023-02-23T05:17:22;10.80;99.90
6865;DHT22;3471;49.678;8.388;2023-02-23T05:19:48;10.80;99.90
6865;DHT22;3471;49.678;8.388;2023-02-23T05:22:13;10.80;99.90
6865;DHT22;3471;49.678;8.388;2023-02-23T05:24:40;10.80;99.90
6865;DHT22;3471;49.678;8.388;2023-02-23T05:27:09;10.80;99.90
6865;DHT22;3471;49.678;8.388;2023-02-23T05:29:35;10.80;99.90
6865;DHT22;3471;49.678;8.388;2023-02-23T05:32:00;10.80;99.90
6865;DHT22;3471;49.678;8.388;2023-02-23T05:34:26;10.80;99.90
6865;DHT22;3471;49.678;8.388;2023-02-23T05:36:52;10.80;99.90
6865;DHT22;3471;49.678;8.388;2023-02-23T05:39:19;10.80;99.90
6865;DHT22;3471;49.678;8.388;2023-02-23T05:41:44;10.80;99.90
6865;DHT22;3471;49.678;8.388;2023-02-23T05:44:10;10.80;99.90
6865;DHT22;3471;49.678;8.388;2023-02-23T05:46:36;10.80;99.90
6865;DHT22;3471;49.678;8.388;2023-02-23T05:49:01;10.80;99.90
6865;DHT22;3471;49.678;8.388;2023-02-23T05:51:29;10.80;99.90
6865;DHT22;3471;49.678;8.388;2023-02-23T05:53:54;10.80;99.90
6865;DHT22;3471;49.678;8.388;2023-02-23T05:56:20;10.80;99.90
6865;DHT22;3471;49.678;8.388;2023-02-23T05:58:50;10.70;99.90
6865;DHT22;3471;49.678;8.388;2023-02-23T06:01:17;10.70;99.90
6865;DHT22;3471;49.678;8.388;2023-02-23T06:03:43;10.80;99.90
6865;DHT22;3471;49.678;8.388;2023-02-23T06:06:09;10.80;99.90
6865;DHT22;3471;49.678;8.388;2023-02-23T06:08:35;10.80;99.90
6865;DHT22;3471;49.678;8.388;2023-02-23T06:11:01;10.80;99.90
6865;DHT22;3471;49.678;8.388;2023-02-23T06:13:28;10.80;99.90
6865;DHT22;3471;49.678;8.388;2023-02-23T06:15:55;10.80;99.90
6865;DHT22;3471;49.678;8.388;2023-02-23T06:18:21;10.70;99.90
6865;DHT22;3471;49.678;8.388;2023-02-23T06:20:47;10.70;99.90
6865;DHT22;3471;49.678;8.388;2023-02-23T06:23:13;10.70;99.90
6865;DHT22;3471;49.678;8.388;2023-02-23T06:25:40;10.70;99.90
6865;DHT22;3471;49.678;8.388;2023-02-23T06:28:06;10.70;99.90
6865;DHT22;3471;49.678;8.388;2023-02-23T06:30:33;10.70;99.90
6865;DHT22;3471;49.678;8.388;2023-02-23T06:32:59;10.70;99.90
6865;DHT22;3471;49.678;8.388;2023-02-23T06:35:25;10.70;99.90
6865;DHT22;3471;49.678;8.388;2023-02-23T06:37:51;10.70;99.90
6865;DHT22;3471;49.678;8.388;2023-02-23T06:40:18;10.70;99.90
6865;DHT22;3471;49.678;8.388;2023-02-23T06:42:44;10.70;99.90
6865;DHT22;3471;49.678;8.388;2023-02-23T06:45:10;10.70;99.90
6865;DHT22;3471;49.678;8.388;2023-02-23T06:47:35;10.70;99.90
6865;DHT22;3471;49.678;8.388;2023-02-23T06:50:01;10.70;99.90
6865;DHT22;3471;49.678;8.388;2023-02-23T06:52:28;10.70;99.90
6865;DHT22;3471;49.678;8.388;2023-02-23T06:54:53;10.80;99.90
6865;DHT22;3471;49.678;8.388;2023-02-23T06:57:19;10.80;99.90
6865;DHT22;3471;49.678;8.388;2023-02-23T06:59:46;10.70;99.90
6865;DHT22;3471;49.678;8.388;2023-02-23T07:02:12;10.80;99.90
6865;DHT22;3471;49.678;8.388;2023-02-23T07:04:38;10.80;99.90
6865;DHT22;3471;49.678;8.388;2023-02-23T07:07:03;10.80;99.90
6865;DHT22;3471;49.678;8.388;2023-02-23T07:09:29;10.80;99.90
6865;DHT22;3471;49.678;8.388;2023-02-23T07:11:55;10.90;99.90
6865;DHT22;3471;49.678;8.388;2023-02-23T07:14:20;10.90;99.90
6865;DHT22;3471;49.678;8.388;2023-02-23T07:16:46;11.00;99.90
6865;DHT22;3471;49.678;8.388;2023-02-23T07:19:12;11.00;99.90
6865;DHT22;3471;49.678;8.388;2023-02-23T07:21:37;11.00;99.90
6865;DHT22;3471;49.678;8.388;2023-02-23T07:24:03;11.10;99.90
6865;DHT22;3471;49.678;8.388;2023-02-23T07:26:31;11.10;99.90
6865;DHT22;3471;49.678;8.388;2023-02-23T07:28:58;11.10;99.90
6865;DHT22;3471;49.678;8.388;2023-02-23T07:31:24;11.20;99.90
6865;DHT22;3471;49.678;8.388;2023-02-23T07:33:51;11.20;99.90
6865;DHT22;3471;49.678;8.388;2023-02-23T07:36:17;11.30;99.90
6865;DHT22;3471;49.678;8.388;2023-02-23T07:38:42;11.30;99.90
6865;DHT22;3471;49.678;8.388;2023-02-23T07:41:08;11.40;99.90
6865;DHT22;3471;49.678;8.388;2023-02-23T07:43:35;11.40;99.90
6865;DHT22;3471;49.678;8.388;2023-02-23T07:46:01;11.40;99.90
6865;DHT22;3471;49.678;8.388;2023-02-23T07:48:27;11.50;99.90
6865;DHT22;3471;49.678;8.388;2023-02-23T07:50:53;11.60;99.90
6865;DHT22;3471;49.678;8.388;2023-02-23T07:53:18;11.60;99.90
6865;DHT22;3471;49.678;8.388;2023-02-23T07:55:44;11.60;99.90
6865;DHT22;3471;49.678;8.388;2023-02-23T07:58:09;11.60;99.90
6865;DHT22;3471;49.678;8.388;2023-02-23T08:00:38;11.70;99.90
6865;DHT22;3471;49.678;8.388;2023-02-23T08:03:05;11.80;99.90
6865;DHT22;3471;49.678;8.388;2023-02-23T08:05:30;11.80;99.90
6865;DHT22;3471;49.678;8.388;2023-02-23T08:07:57;11.80;99.90
6865;DHT22;3471;49.678;8.388;2023-02-23T08:10:23;11.90;99.90
6865;DHT22;3471;49.678;8.388;2023-02-23T08:12:49;11.90;99.90
6865;DHT22;3471;49.678;8.388;2023-02-23T08:15:15;12.00;99.90
6865;DHT22;3471;49.678;8.388;2023-02-23T08:17:41;12.00;99.90
6865;DHT22;3471;49.678;8.388;2023-02-23T08:20:08;12.10;99.90
6865;DHT22;3471;49.678;8.388;2023-02-23T08:22:34;12.10;99.90
6865;DHT22;3471;49.678;8.388;2023-02-23T08:24:59;12.20;99.90
6865;DHT22;3471;49.678;8.388;2023-02-23T08:27:26;12.20;99.90
6865;DHT22;3471;49.678;8.388;2023-02-23T08:29:55;12.20;99.90
6865;DHT22;3471;49.678;8.388;2023-02-23T08:32:21;12.30;99.90
6865;DHT22;3471;49.678;8.388;2023-02-23T08:34:47;12.30;99.90
6865;DHT22;3471;49.678;8.388;2023-02-23T08:37:12;12.40;99.90
6865;DHT22;3471;49.678;8.388;2023-02-23T08:39:38;12.50;99.90
6865;DHT22;3471;49.678;8.388;2023-02-23T08:42:04;12.50;99.90
6865;DHT22;3471;49.678;8.388;2023-02-23T08:44:29;12.60;99.90
6865;DHT22;3471;49.678;8.388;2023-02-23T08:46:55;12.70;99.90
6865;DHT22;3471;49.678;8.388;2023-02-23T08:49:23;12.70;99.90
6865;DHT22;3471;49.678;8.388;2023-02-23T08:51:49;12.80;99.90
6865;DHT22;3471;49.678;8.388;2023-02-23T08:54:15;12.80;99.90
6865;DHT22;3471;49.678;8.388;2023-02-23T08:56:42;12.90;99.90
6865;DHT22;3471;49.678;8.388;2023-02-23T08:59:08;13.00;99.90
6865;DHT22;3471;49.678;8.388;2023-02-23T09:01:34;13.00;99.90
6865;DHT22;3471;49.678;8.388;2023-02-23T09:03:59;13.20;99.90
6865;DHT22;3471;49.678;8.388;2023-02-23T09:06:26;13.30;99.90
6865;DHT22;3471;49.678;8.388;2023-02-23T09:08:53;13.40;99.90
6865;DHT22;3471;49.678;8.388;2023-02-23T09:11:20;13.60;99.90
6865;DHT22;3471;49.678;8.388;2023-02-23T09:13:46;13.70;99.90
6865;DHT22;3471;49.678;8.388;2023-02-23T09:16:11;13.80;99.90
6865;DHT22;3471;49.678;8.388;2023-02-23T09:18:37;13.90;99.90
6865;DHT22;3471;49.678;8.388;2023-02-23T09:21:04;13.90;99.90
6865;DHT22;3471;49.678;8.388;2023-02-23T09:23:32;14.00;99.90
6865;DHT22;3471;49.678;8.388;2023-02-23T09:26:02;14.00;99.90
6865;DHT22;3471;49.678;8.388;2023-02-23T09:28:28;14.10;99.90
6865;DHT22;3471;49.678;8.388;2023-02-23T09:30:55;14.10;99.90
6865;DHT22;3471;49.678;8.388;2023-02-23T09:33:21;14.20;99.90
6865;DHT22;3471;49.678;8.388;2023-02-23T09:35:47;14.20;99.90
6865;DHT22;3471;49.678;8.388;2023-02-23T09:38:12;14.20;99.90
6865;DHT22;3471;49.678;8.388;2023-02-23T09:40:49;14.20;99.90
6865;DHT22;3471;49.678;8.388;2023-02-23T09:46:05;14.20;99.90
6865;DHT22;3471;49.678;8.388;2023-02-23T09:48:33;14.30;99.90
6865;DHT22;3471;49.678;8.388;2023-02-23T09:51:00;14.20;99.90
6865;DHT22;3471;49.678;8.388;2023-02-23T09:55:58;14.10;99.90
6865;DHT22;3471;49.678;8.388;2023-02-23T09:58:31;14.00;99.90
6865;DHT22;3471;49.678;8.388;2023-02-23T10:06:29;14.00;99.90
6865;DHT22;3471;49.678;8.388;2023-02-23T10:09:20;14.00;99.90
6865;DHT22;3471;49.678;8.388;2023-02-23T10:14:58;14.20;99.90
6865;DHT22;3471;49.678;8.388;2023-02-23T10:17:36;14.40;99.90
6865;DHT22;3471;49.678;8.388;2023-02-23T10:22:39;14.60;99.90
6865;DHT22;3471;49.678;8.388;2023-02-23T10:25:13;14.70;99.90
6865;DHT22;3471;49.678;8.388;2023-02-23T10:27:46;14.80;99.90
6865;DHT22;3471;49.678;8.388;2023-02-23T10:30:18;14.80;99.90
6865;DHT22;3471;49.678;8.388;2023-02-23T10:35:27;15.00;99.90
6865;DHT22;3471;49.678;8.388;2023-02-23T10:37:54;15.00;99.90
6865;DHT22;3471;49.678;8.388;2023-02-23T10:40:25;15.10;99.90
6865;DHT22;3471;49.678;8.388;2023-02-23T10:42:53;15.10;99.90
6865;DHT22;3471;49.678;8.388;2023-02-23T10:45:25;15.10;99.90
6865;DHT22;3471;49.678;8.388;2023-02-23T10:48:05;15.20;99.90
6865;DHT22;3471;49.678;8.388;2023-02-23T10:50:32;15.20;99.90
6865;DHT22;3471;49.678;8.388;2023-02-23T10:53:03;15.30;99.90
6865;DHT22;3471;49.678;8.388;2023-02-23T10:55:34;15.40;99.90
6865;DHT22;3471;49.678;8.388;2023-02-23T10:58:07;15.50;99.90
6865;DHT22;3471;49.678;8.388;2023-02-23T11:00:38;15.60;99.90
6865;DHT22;3471;49.678;8.388;2023-02-23T11:03:32;15.80;99.90
6865;DHT22;3471;49.678;8.388;2023-02-23T11:05:58;15.90;99.90
6865;DHT22;3471;49.678;8.388;2023-02-23T11:08:30;16.00;99.90
6865;DHT22;3471;49.678;8.388;2023-02-23T11:10:59;16.00;99.90
6865;DHT22;3471;49.678;8.388;2023-02-23T11:13:27;16.00;99.90
6865;DHT22;3471;49.678;8.388;2023-02-23T11:18:34;15.90;99.90
6865;DHT22;3471;49.678;8.388;2023-02-23T11:21:00;15.80;99.90
6865;DHT22;3471;49.678;8.388;2023-02-23T11:23:34;15.60;99.90
6865;DHT22;3471;49.678;8.388;2023-02-23T11:26:27;15.50;99.90
6865;DHT22;3471;49.678;8.388;2023-02-23T11:28:57;15.40;99.90
6865;DHT22;3471;49.678;8.388;2023-02-23T11:31:32;15.50;99.90
6865;DHT22;3471;49.678;8.388;2023-02-23T11:34:03;15.60;99.90
6865;DHT22;3471;49.678;8.388;2023-02-23T11:36:32;15.70;99.90
6865;DHT22;3471;49.678;8.388;2023-02-23T11:39:19;16.00;99.90
6865;DHT22;3471;49.678;8.388;2023-02-23T11:42:03;16.30;99.90
6865;DHT22;3471;49.678;8.388;2023-02-23T11:44:31;16.50;99.90
6865;DHT22;3471;49.678;8.388;2023-02-23T11:46:56;16.70;99.90
6865;DHT22;3471;49.678;8.388;2023-02-23T11:49:28;17.00;99.90
6865;DHT22;3471;49.678;8.388;2023-02-23T11:51:55;17.40;99.90
6865;DHT22;3471;49.678;8.388;2023-02-23T11:54:26;17.80;99.90
6865;DHT22;3471;49.678;8.388;2023-02-23T11:56:52;18.30;99.90
6865;DHT22;3471;49.678;8.388;2023-02-23T11:59:26;18.70;99.90
6865;DHT22;3471;49.678;8.388;2023-02-23T12:01:53;19.20;99.90
6865;DHT22;3471;49.678;8.388;2023-02-23T12:04:38;19.90;99.90
6865;DHT22;3471;49.678;8.388;2023-02-23T12:09:48;20.80;99.90
6865;DHT22;3471;49.678;8.388;2023-02-23T12:12:19;21.00;99.90
6865;DHT22;3471;49.678;8.388;2023-02-23T12:15:04;20.90;99.90
6865;DHT22;3471;49.678;8.388;2023-02-23T12:17:39;20.60;99.90
6865;DHT22;3471;49.678;8.388;2023-02-23T12:20:21;20.30;99.90
6865;DHT22;3471;49.678;8.388;2023-02-23T12:22:56;20.00;99.90
6865;DHT22;3471;49.678;8.388;2023-02-23T12:25:38;19.90;99.90
6865;DHT22;3471;49.678;8.388;2023-02-23T12:31:48;19.70;99.90
6865;DHT22;3471;49.678;8.388;2023-02-23T12:34:27;19.50;99.90
6865;DHT22;3471;49.678;8.388;2023-02-23T12:36:59;19.40;99.90
6865;DHT22;3471;49.678;8.388;2023-02-23T12:39:53;19.50;99.90
6865;DHT22;3471;49.678;8.388;2023-02-23T12:42:45;19.90;99.90
6865;DHT22;3471;49.678;8.388;2023-02-23T12:45:20;20.30;99.90
6865;DHT22;3471;49.678;8.388;2023-02-23T12:50:52;20.20;99.90
6865;DHT22;3471;49.678;8.388;2023-02-23T12:53:40;19.90;99.90
6865;DHT22;3471;49.678;8.388;2023-02-23T12:56:26;19.60;99.90
6865;DHT22;3471;49.678;8.388;2023-02-23T13:01:56;18.90;99.90
6865;DHT22;3471;49.678;8.388;2023-02-23T13:07:19;18.10;99.90
6865;DHT22;3471;49.678;8.388;2023-02-23T13:15:20;17.40;99.90
6865;DHT22;3471;49.678;8.388;2023-02-23T13:20:46;17.10;99.90
6865;DHT22;3471;49.678;8.388;2023-02-23T13:26:10;16.90;99.90
6865;DHT22;3471;49.678;8.388;2023-02-23T13:28:51;16.80;99.90
6865;DHT22;3471;49.678;8.388;2023-02-23T13:33:49;16.70;99.90
6865;DHT22;3471;49.678;8.388;2023-02-23T13:36:15;16.70;99.90
6865;DHT22;3471;49.678;8.388;2023-02-23T13:38:47;16.70;99.90
6865;DHT22;3471;49.678;8.388;2023-02-23T13:41:32;16.70;99.90
6865;DHT22;3471;49.678;8.388;2023-02-23T13:46:59;16.60;99.90
6865;DHT22;3471;49.678;8.388;2023-02-23T13:49:38;16.60;99.90
6865;DHT22;3471;49.678;8.388;2023-02-23T13:54:57;16.60;99.90
6865;DHT22;3471;49.678;8.388;2023-02-23T13:57:23;16.60;99.90
6865;DHT22;3471;49.678;8.388;2023-02-23T13:59:51;16.60;99.90
6865;DHT22;3471;49.678;8.388;2023-02-23T14:02:38;16.60;99.90
6865;DHT22;3471;49.678;8.388;2023-02-23T14:05:18;16.60;99.90
6865;DHT22;3471;49.678;8.388;2023-02-23T14:07:47;16.60;99.90
6865;DHT22;3471;49.678;8.388;2023-02-23T14:10:24;16.60;99.90
6865;DHT22;3471;49.678;8.388;2023-02-23T14:20:42;16.40;99.90
6865;DHT22;3471;49.678;8.388;2023-02-23T14:25:45;16.30;99.90
6865;DHT22;3471;49.678;8.388;2023-02-23T14:31:05;16.10;99.90
6865;DHT22;3471;49.678;8.388;2023-02-23T14:41:39;15.80;99.90
6865;DHT22;3471;49.678;8.388;2023-02-23T14:44:29;15.80;99.90
6865;DHT22;3471;49.678;8.388;2023-02-23T14:47:07;15.80;99.90
6865;DHT22;3471;49.678;8.388;2023-02-23T14:49:41;15.70;99.90
6865;DHT22;3471;49.678;8.388;2023-02-23T14:52:23;15.70;99.90
6865;DHT22;3471;49.678;8.388;2023-02-23T14:54:50;15.60;99.90
6865;DHT22;3471;49.678;8.388;2023-02-23T14:57:24;15.50;99.90
6865;DHT22;3471;49.678;8.388;2023-02-23T15:00:05;15.40;99.90
6865;DHT22;3471;49.678;8.388;2023-02-23T15:02:31;15.40;99.90
6865;DHT22;3471;49.678;8.388;2023-02-23T15:04:56;15.30;99.90
6865;DHT22;3471;49.678;8.388;2023-02-23T15:07:31;15.20;99.90
6865;DHT22;3471;49.678;8.388;2023-02-23T15:10:00;15.20;99.90
6865;DHT22;3471;49.678;8.388;2023-02-23T15:12:29;15.20;99.90
6865;DHT22;3471;49.678;8.388;2023-02-23T15:15:01;15.10;99.90
6865;DHT22;3471;49.678;8.388;2023-02-23T15:17:30;15.10;99.90
6865;DHT22;3471;49.678;8.388;2023-02-23T15:20:04;15.10;99.90
6865;DHT22;3471;49.678;8.388;2023-02-23T15:22:33;15.10;99.90
6865;DHT22;3471;49.678;8.388;2023-02-23T15:25:01;15.10;99.90
6865;DHT22;3471;49.678;8.388;2023-02-23T15:27:41;15.10;99.90
6865;DHT22;3471;49.678;8.388;2023-02-23T15:30:25;15.10;99.90
6865;DHT22;3471;49.678;8.388;2023-02-23T15:33:11;15.10;99.90
6865;DHT22;3471;49.678;8.388;2023-02-23T15:38:31;15.20;99.90
6865;DHT22;3471;49.678;8.388;2023-02-23T15:41:03;15.20;99.90
6865;DHT22;3471;49.678;8.388;2023-02-23T15:43:31;15.20;99.90
6865;DHT22;3471;49.678;8.388;2023-02-23T15:46:00;15.20;99.90
6865;DHT22;3471;49.678;8.388;2023-02-23T15:48:42;15.20;99.90
6865;DHT22;3471;49.678;8.388;2023-02-23T15:51:32;15.20;99.90
6865;DHT22;3471;49.678;8.388;2023-02-23T15:53:59;15.20;99.90
6865;DHT22;3471;49.678;8.388;2023-02-23T15:56:29;15.20;99.90
6865;DHT22;3471;49.678;8.388;2023-02-23T15:59:01;15.20;99.90
6865;DHT22;3471;49.678;8.388;2023-02-23T16:01:29;15.20;99.90
6865;DHT22;3471;49.678;8.388;2023-02-23T16:04:04;15.20;99.90
6865;DHT22;3471;49.678;8.388;2023-02-23T16:11:48;15.20;99.90
6865;DHT22;3471;49.678;8.388;2023-02-23T16:14:16;15.20;99.90
6865;DHT22;3471;49.678;8.388;2023-02-23T16:16:42;15.10;99.90
6865;DHT22;3471;49.678;8.388;2023-02-23T16:19:12;15.10;99.90
6865;DHT22;3471;49.678;8.388;2023-02-23T16:21:38;15.00;99.90
6865;DHT22;3471;49.678;8.388;2023-02-23T16:24:26;14.90;99.90
6865;DHT22;3471;49.678;8.388;2023-02-23T16:26:55;14.90;99.90
6865;DHT22;3471;49.678;8.388;2023-02-23T16:29:40;14.70;99.90
6865;DHT22;3471;49.678;8.388;2023-02-23T16:32:18;14.70;99.90
6865;DHT22;3471;49.678;8.388;2023-02-23T16:34:49;14.60;99.90
6865;DHT22;3471;49.678;8.388;2023-02-23T16:37:21;14.50;99.90
6865;DHT22;3471;49.678;8.388;2023-02-23T16:39:49;14.50;99.90
6865;DHT22;3471;49.678;8.388;2023-02-23T16:42:26;14.40;99.90
6865;DHT22;3471;49.678;8.388;2023-02-23T16:44:52;14.30;99.90
6865;DHT22;3471;49.678;8.388;2023-02-23T16:49:51;14.20;99.90
6865;DHT22;3471;49.678;8.388;2023-02-23T16:52:19;14.20;99.90
6865;DHT22;3471;49.678;8.388;2023-02-23T16:54:44;14.10;99.90
6865;DHT22;3471;49.678;8.388;2023-02-23T16:57:20;14.10;99.90
6865;DHT22;3471;49.678;8.388;2023-02-23T16:59:49;14.00;99.90
6865;DHT22;3471;49.678;8.388;2023-02-23T17:02:17;14.00;99.90
6865;DHT22;3471;49.678;8.388;2023-02-23T17:04:44;13.90;99.90
6865;DHT22;3471;49.678;8.388;2023-02-23T17:07:14;13.90;99.90
6865;DHT22;3471;49.678;8.388;2023-02-23T17:09:41;13.80;99.90
6865;DHT22;3471;49.678;8.388;2023-02-23T17:12:12;13.80;99.90
6865;DHT22;3471;49.678;8.388;2023-02-23T17:14:38;13.80;99.90
6865;DHT22;3471;49.678;8.388;2023-02-23T17:17:04;13.70;99.90
6865;DHT22;3471;49.678;8.388;2023-02-23T17:19:29;13.70;99.90
6865;DHT22;3471;49.678;8.388;2023-02-23T17:21:55;13.70;99.90
6865;DHT22;3471;49.678;8.388;2023-02-23T17:24:20;13.60;99.90
6865;DHT22;3471;49.678;8.388;2023-02-23T17:26:50;13.60;99.90
6865;DHT22;3471;49.678;8.388;2023-02-23T17:29:16;13.60;99.90
6865;DHT22;3471;49.678;8.388;2023-02-23T17:31:43;13.60;99.90
6865;DHT22;3471;49.678;8.388;2023-02-23T17:34:09;13.50;99.90
6865;DHT22;3471;49.678;8.388;2023-02-23T17:36:34;13.50;99.90
6865;DHT22;3471;49.678;8.388;2023-02-23T17:39:00;13.40;99.90
6865;DHT22;3471;49.678;8.388;2023-02-23T17:41:26;13.40;99.90
6865;DHT22;3471;49.678;8.388;2023-02-23T17:43:52;13.40;99.90
6865;DHT22;3471;49.678;8.388;2023-02-23T17:46:18;13.30;99.90
6865;DHT22;3471;49.678;8.388;2023-02-23T17:48:44;13.30;99.90
6865;DHT22;3471;49.678;8.388;2023-02-23T17:51:12;13.30;99.90
6865;DHT22;3471;49.678;8.388;2023-02-23T17:53:41;13.20;99.90
6865;DHT22;3471;49.678;8.388;2023-02-23T17:56:07;13.20;99.90
6865;DHT22;3471;49.678;8.388;2023-02-23T17:58:33;13.20;99.90
6865;DHT22;3471;49.678;8.388;2023-02-23T18:01:01;13.10;99.90
6865;DHT22;3471;49.678;8.388;2023-02-23T18:03:29;13.10;99.90
6865;DHT22;3471;49.678;8.388;2023-02-23T18:06:03;13.10;99.90
6865;DHT22;3471;49.678;8.388;2023-02-23T18:08:30;13.10;99.90
6865;DHT22;3471;49.678;8.388;2023-02-23T18:10:56;13.10;99.90
6865;DHT22;3471;49.678;8.388;2023-02-23T18:13:22;13.00;99.90
6865;DHT22;3471;49.678;8.388;2023-02-23T18:15:53;13.00;99.90
6865;DHT22;3471;49.678;8.388;2023-02-23T18:18:20;13.00;99.90
6865;DHT22;3471;49.678;8.388;2023-02-23T18:20:48;13.00;99.90
6865;DHT22;3471;49.678;8.388;2023-02-23T18:23:14;13.00;99.90
6865;DHT22;3471;49.678;8.388;2023-02-23T18:25:40;12.90;99.90
6865;DHT22;3471;49.678;8.388;2023-02-23T18:28:05;12.90;99.90
6865;DHT22;3471;49.678;8.388;2023-02-23T18:30:34;12.90;99.90
6865;DHT22;3471;49.678;8.388;2023-02-23T18:33:01;12.90;99.90
6865;DHT22;3471;49.678;8.388;2023-02-23T18:35:30;12.80;99.90
6865;DHT22;3471;49.678;8.388;2023-02-23T18:37:56;12.80;99.90